CBH2 weather

Helmet Airport
Helmet, British Columbia, Canada

Public forecast

Using degrees Celsius for public forecast. Weather courtesy of forecast.io.

Closest aviation weather report (METAR) to Helmet Airport

Closest report is Fort Nelson Airport, 65.8 nm (121.8 km) WSW. Retrieved 2020/02/18 06:00 UTC (7 minutes ago):

CYYE 180600Z 24005KT 15SM FEW056 M25/M27 A3031 RMK SC1 SLP316

Closest aviation forecast (TAF) to Helmet Airport

Closest forecast is Fort Nelson Airport, 65.8 nm (121.8 km) WSW. Retrieved 2020/02/18 07:39 UTC (0 seconds ago):

TAF CYYE 180638Z 1807/1819 VRB03KT P6SM FEW060 FM181200 VRB03KT P6SM SCT060 TEMPO 1812/1819 P6SM -SN BKN060 RMK NXT FCST BY 181300Z